Time;durP1;ratioP1;P1;durP2;ratioP2;P2;SDS_P1;SDS_P2;PMS_P1;PMS_P2;Temp;Humidity;BMP_temperature;BMP_pressure;BME280_temperature;BME280_humidity;BME280_pressure;Samples;Min_cycle;Max_cycle;Signal;HPM_P1;HPM_P2
2022/09/24 00:00:56;;;;;;;12.90;9.50;;;;;;;13.18;89.51;100625.72;4962300;29;20054;-82
2022/09/24 00:03:24;;;;;;;16.10;10.43;;;;;;;13.16;89.87;100628.53;4963039;29;20047;-83
2022/09/24 00:05:52;;;;;;;17.83;10.45;;;;;;;13.09;90.07;100626.72;4963449;29;20134;-82
2022/09/24 00:08:20;;;;;;;14.88;10.32;;;;;;;13.04;90.60;100614.09;4963573;29;20110;-83
2022/09/24 00:10:48;;;;;;;14.63;10.10;;;;;;;12.98;90.81;100606.91;4961783;29;20111;-83
2022/09/24 00:13:18;;;;;;;16.60;10.68;;;;;;;12.93;91.75;100607.41;4963656;29;20054;-83
2022/09/24 00:15:47;;;;;;;17.13;10.80;;;;;;;12.89;92.05;100611.38;4963965;29;20449;-82
2022/09/24 00:18:15;;;;;;;18.65;10.85;;;;;;;12.90;92.05;100615.63;4962075;29;20107;-82
2022/09/24 00:20:42;;;;;;;15.85;10.32;;;;;;;12.88;92.74;100622.06;4965299;29;20603;-83
2022/09/24 00:23:10;;;;;;;19.73;10.43;;;;;;;12.87;92.95;100618.59;4965786;29;20058;-83
2022/09/24 00:28:26;;;;;;;16.98;11.00;;;;;;;12.84;93.65;100628.63;4963275;29;20066;-83
2022/09/24 00:30:53;;;;;;;16.77;11.80;;;;;;;12.87;94.17;100633.53;4963391;29;20121;-84
2022/09/24 00:33:20;;;;;;;17.05;12.07;;;;;;;12.94;93.92;100630.06;4962549;28;20082;-82
2022/09/24 00:35:46;;;;;;;18.55;11.77;;;;;;;12.94;93.79;100630.06;4963574;29;20062;-82
2022/09/24 00:38:13;;;;;;;17.35;11.60;;;;;;;13.01;94.02;100624.94;4963110;29;20071;-83
2022/09/24 00:40:40;;;;;;;14.25;11.85;;;;;;;12.99;93.89;100631.38;4963694;29;20126;-80
2022/09/24 00:43:22;;;;;;;19.35;12.88;;;;;;;12.96;93.49;100630.72;4963491;29;20435;-82
2022/09/24 00:45:51;;;;;;;20.50;12.40;;;;;;;13.10;93.06;100631.81;4962290;29;20129;-81
2022/09/24 00:48:18;;;;;;;20.38;12.73;;;;;;;13.08;92.91;100623.28;4963364;29;20051;-84
2022/09/24 00:50:45;;;;;;;17.38;12.80;;;;;;;13.09;93.41;100637.22;4962534;29;20146;-84
2022/09/24 00:53:18;;;;;;;18.83;12.68;;;;;;;13.12;93.11;100623.75;4961446;29;20146;-84
2022/09/24 00:55:48;;;;;;;18.73;12.63;;;;;;;13.12;93.29;100618.50;4962194;29;20480;-85
2022/09/24 00:58:14;;;;;;;17.42;12.80;;;;;;;13.15;93.47;100620.78;4962764;29;20077;-84
2022/09/24 01:00:43;;;;;;;18.45;12.68;;;;;;;13.20;93.40;100613.25;4962651;29;20118;-85
2022/09/24 01:03:14;;;;;;;26.67;13.05;;;;;;;13.18;93.25;100615.22;4963537;29;20051;-85
2022/09/24 01:05:40;;;;;;;20.30;13.25;;;;;;;13.17;93.34;100608.31;4963353;29;20114;-84
2022/09/24 01:08:10;;;;;;;16.65;12.80;;;;;;;13.16;93.44;100611.94;4964969;29;20106;-85
2022/09/24 01:10:51;;;;;;;20.50;13.50;;;;;;;13.14;93.68;100609.47;4963682;29;20078;-83
2022/09/24 01:13:39;;;;;;;20.15;14.25;;;;;;;13.11;93.91;100614.25;4961620;29;20047;-83
2022/09/24 01:16:12;;;;;;;18.45;13.77;;;;;;;13.07;94.45;100602.44;4961515;29;20464;-83
2022/09/24 01:18:44;;;;;;;17.55;12.90;;;;;;;13.12;94.60;100600.94;4961671;29;20047;-85
2022/09/24 01:21:33;;;;;;;19.63;14.38;;;;;;;13.10;94.74;100597.66;4962017;29;20051;-85
2022/09/24 01:24:39;;;;;;;21.88;14.60;;;;;;;13.11;95.31;100590.59;4963068;29;20114;-84
2022/09/24 01:27:11;;;;;;;17.80;13.18;;;;;;;13.09;95.75;100595.19;4940954;29;20054;-85
2022/09/24 01:30:01;;;;;;;19.35;13.75;;;;;;;13.05;95.86;100591.28;4961024;29;20138;-83
2022/09/24 01:32:34;;;;;;;16.58;13.55;;;;;;;13.04;96.17;100581.75;4962732;29;20420;-83
2022/09/24 01:35:06;;;;;;;18.45;14.07;;;;;;;13.01;95.90;100582.94;4963042;29;20055;-82
2022/09/24 01:37:37;;;;;;;16.65;14.35;;;;;;;13.00;95.97;100578.66;4963951;29;20055;-84
2022/09/24 01:40:07;;;;;;;22.58;15.15;;;;;;;12.94;96.29;100581.97;4962421;29;20067;-83
2022/09/24 01:42:35;;;;;;;20.65;14.48;;;;;;;12.92;96.72;100584.78;4960292;29;20632;-83
2022/09/24 01:45:05;;;;;;;19.50;14.88;;;;;;;12.96;96.96;100586.06;4963731;29;20267;-84
2022/09/24 01:47:38;;;;;;;16.83;14.13;;;;;;;12.95;97.15;100586.25;4964771;29;20150;-83
2022/09/24 01:50:06;;;;;;;20.90;15.05;;;;;;;12.94;97.43;100585.41;4964906;29;20047;-83
2022/09/24 01:52:39;;;;;;;22.73;15.63;;;;;;;12.98;97.27;100582.44;4965650;29;20058;-82
2022/09/24 01:55:07;;;;;;;;;;;;;;;12.97;97.99;100586.88;4965468;29;20058;-83
2022/09/24 01:57:38;;;;;;;18.10;15.15;;;;;;;13.01;98.00;100582.09;4965158;29;20025;-81
2022/09/24 02:00:10;;;;;;;18.25;15.55;;;;;;;13.01;97.95;100574.22;4964912;29;20043;-83
2022/09/24 02:02:44;;;;;;;19.15;15.77;;;;;;;13.06;97.74;100579.78;4965340;29;20089;-82
2022/09/24 02:05:16;;;;;;;21.08;16.33;;;;;;;13.00;97.83;100572.59;4963519;29;20055;-84
2022/09/24 02:07:51;;;;;;;23.95;16.63;;;;;;;13.04;97.89;100571.25;4964930;29;20141;-85
2022/09/24 02:10:20;;;;;;;21.75;16.23;;;;;;;13.09;97.57;100575.00;4963369;29;20116;-84
2022/09/24 02:12:55;;;;;;;18.88;15.73;;;;;;;13.06;97.88;100574.53;4964384;29;20051;-83
2022/09/24 02:15:28;;;;;;;20.33;15.77;;;;;;;13.08;97.94;100577.81;4964979;29;20083;-83
2022/09/24 02:17:58;;;;;;;22.75;16.10;;;;;;;13.01;98.03;100566.34;4965695;29;20134;-83
2022/09/24 02:20:27;;;;;;;19.65;16.58;;;;;;;12.97;98.41;100571.13;4964160;29;20146;-83
2022/09/24 02:22:56;;;;;;;23.25;16.80;;;;;;;12.92;98.57;100571.63;4962865;29;20141;-83
2022/09/24 02:25:29;;;;;;;22.80;17.02;;;;;;;12.92;98.87;100566.38;4962317;29;20110;-83
2022/09/24 02:27:56;;;;;;;21.75;17.48;;;;;;;12.92;98.68;100563.75;4961977;29;20082;-84
2022/09/24 02:30:24;;;;;;;21.45;16.42;;;;;;;12.89;98.86;100561.47;4961778;29;20062;-83
2022/09/24 02:32:53;;;;;;;21.77;15.93;;;;;;;12.84;98.92;100550.66;4962577;29;20134;-83
2022/09/24 02:35:19;;;;;;;23.52;17.00;;;;;;;12.85;99.38;100557.56;4962539;29;20051;-83
2022/09/24 02:37:46;;;;;;;20.83;17.23;;;;;;;12.85;99.15;100554.94;4964579;29;20089;-83
2022/09/24 02:40:14;;;;;;;20.60;16.67;;;;;;;12.78;98.91;100546.09;4973225;29;20478;-83
2022/09/24 02:42:42;;;;;;;21.50;16.23;;;;;;;12.78;99.12;100550.53;4970852;29;20087;-84
2022/09/24 02:45:09;;;;;;;24.58;16.45;;;;;;;12.73;99.48;100551.09;4966129;29;20526;-84
2022/09/24 02:47:37;;;;;;;21.77;17.17;;;;;;;12.74;99.68;100544.84;4964411;29;20183;-81
2022/09/24 02:50:05;;;;;;;21.77;15.95;;;;;;;12.79;99.62;100547.75;4963550;29;20555;-83
2022/09/24 02:52:32;;;;;;;20.88;15.20;;;;;;;12.84;99.90;100549.84;4964308;29;20138;-81
2022/09/24 02:54:59;;;;;;;19.13;15.40;;;;;;;12.77;100.00;100541.84;4963555;28;20529;-83
2022/09/24 02:57:25;;;;;;;21.52;16.20;;;;;;;12.76;100.00;100545.47;4964129;29;20116;-83
2022/09/24 02:59:52;;;;;;;24.45;16.42;;;;;;;12.76;100.00;100540.22;4963021;29;20051;-84
2022/09/24 03:02:18;;;;;;;20.58;16.33;;;;;;;12.76;100.00;100532.34;4963841;29;20070;-82
2022/09/24 03:04:47;;;;;;;20.77;16.52;;;;;;;12.73;100.00;100537.97;4965713;29;20111;-82
2022/09/24 03:07:14;;;;;;;20.75;16.10;;;;;;;12.71;100.00;100529.44;4965300;29;20523;-83
2022/09/24 03:09:41;;;;;;;24.05;16.80;;;;;;;12.67;100.00;100525.50;4964627;29;20191;-82
2022/09/24 03:12:07;;;;;;;21.17;15.77;;;;;;;12.60;100.00;100527.19;4965582;29;20073;-82
2022/09/24 03:14:35;;;;;;;18.42;15.48;;;;;;;12.60;100.00;100532.44;4965191;29;20091;-83
2022/09/24 03:17:01;;;;;;;21.08;15.85;;;;;;;12.58;100.00;100516.84;4964892;29;20129;-84
2022/09/24 03:19:28;;;;;;;19.63;16.25;;;;;;;12.56;100.00;100526.72;4962572;29;20077;-84
2022/09/24 03:21:56;;;;;;;20.25;14.18;;;;;;;12.41;100.00;100517.09;4962462;29;20197;-85
2022/09/24 03:24:23;;;;;;;19.70;15.00;;;;;;;12.35;100.00;100510.72;4962612;29;20075;-82
2022/09/24 03:26:49;;;;;;;19.42;14.98;;;;;;;12.34;100.00;100505.63;4963211;29;20138;-83
2022/09/24 03:29:16;;;;;;;18.63;15.25;;;;;;;12.37;100.00;100510.53;4962620;29;20123;-82
2022/09/24 03:31:41;;;;;;;20.67;13.98;;;;;;;12.49;100.00;100507.38;4964165;29;20114;-82
2022/09/24 03:34:08;;;;;;;16.77;13.60;;;;;;;12.43;100.00;100510.69;4963737;29;20078;-81
2022/09/24 03:36:34;;;;;;;21.13;13.73;;;;;;;12.27;100.00;100502.91;4964093;29;20143;-80
2022/09/24 03:39:02;;;;;;;23.10;14.20;;;;;;;12.19;100.00;100506.38;4964489;29;20203;-83
2022/09/24 03:41:29;;;;;;;21.33;13.48;;;;;;;12.21;100.00;100501.78;4962604;29;20059;-83
2022/09/24 03:43:56;;;;;;;17.40;13.55;;;;;;;12.25;100.00;100500.44;4962591;29;20468;-82
2022/09/24 03:46:28;;;;;;;18.23;12.98;;;;;;;12.26;100.00;100504.72;4961106;29;20134;-83
2022/09/24 03:48:55;;;;;;;19.30;13.77;;;;;;;12.32;100.00;100497.94;4961925;29;20051;-80
2022/09/24 03:51:21;;;;;;;24.15;13.63;;;;;;;12.29;100.00;100504.34;4960231;29;20575;-83
2022/09/24 03:53:48;;;;;;;19.20;13.98;;;;;;;12.23;100.00;100504.22;4960693;29;20055;-82
2022/09/24 03:56:16;;;;;;;19.65;14.05;;;;;;;12.24;100.00;100511.94;4985342;23;20546;-78
2022/09/24 03:58:46;;;;;;;17.05;14.15;;;;;;;12.24;100.00;100508.47;4976292;28;20526;-80
2022/09/24 04:01:19;;;;;;;17.08;13.18;;;;;;;12.20;100.00;100504.56;4969467;28;20134;-79
2022/09/24 04:03:46;;;;;;;15.20;12.85;;;;;;;12.20;100.00;100509.81;4959871;29;20048;-80
2022/09/24 04:06:12;;;;;;;15.80;12.73;;;;;;;12.11;100.00;100510.81;4951190;29;20520;-79
2022/09/24 04:08:39;;;;;;;19.42;12.88;;;;;;;12.17;100.00;100515.38;4944933;29;20524;-80
2022/09/24 04:11:06;;;;;;;21.02;13.73;;;;;;;12.25;100.00;100503.06;4955492;29;20043;-79
2022/09/24 04:13:34;;;;;;;21.00;13.45;;;;;;;12.16;100.00;100495.41;4961967;29;20091;-80
2022/09/24 04:16:02;;;;;;;16.30;13.35;;;;;;;12.24;100.00;100503.25;4959343;29;20115;-79
2022/09/24 04:18:28;;;;;;;18.27;13.15;;;;;;;12.21;100.00;100500.97;4962113;29;20456;-80
2022/09/24 04:20:58;;;;;;;16.20;12.95;;;;;;;12.15;100.00;100496.38;4964213;29;20082;-80
2022/09/24 04:23:25;;;;;;;17.15;13.25;;;;;;;12.15;100.00;100507.69;4963630;29;20541;-80
2022/09/24 04:25:53;;;;;;;15.30;12.48;;;;;;;12.16;100.00;100504.09;4963207;29;20133;-80
2022/09/24 04:28:19;;;;;;;16.70;12.95;;;;;;;12.07;100.00;100488.53;4943378;29;20048;-80
2022/09/24 04:30:47;;;;;;;16.25;12.57;;;;;;;12.15;100.00;100497.19;4946259;29;20080;-80
2022/09/24 04:33:14;;;;;;;19.95;12.45;;;;;;;12.19;100.00;100502.94;4942951;29;20063;-81
2022/09/24 04:35:41;;;;;;;18.42;12.60;;;;;;;12.15;100.00;100499.81;4941512;29;20275;-80
2022/09/24 04:38:07;;;;;;;19.55;13.02;;;;;;;12.17;100.00;100494.41;4960057;29;20547;-79
2022/09/24 04:40:34;;;;;;;17.90;13.52;;;;;;;12.13;100.00;100499.16;4958710;29;20473;-79
2022/09/24 04:43:00;;;;;;;17.27;13.48;;;;;;;12.14;100.00;100498.19;4957061;29;20114;-81
2022/09/24 04:45:27;;;;;;;18.55;12.60;;;;;;;12.10;100.00;100496.88;4958786;29;20109;-81
2022/09/24 04:47:56;;;;;;;19.08;14.60;;;;;;;12.09;100.00;100491.81;4941566;29;20146;-81
2022/09/24 04:50:23;;;;;;;18.77;13.68;;;;;;;12.06;100.00;100492.97;4952081;29;20476;-80
2022/09/24 04:52:50;;;;;;;20.58;14.48;;;;;;;12.04;100.00;100489.69;4962227;29;20043;-80
2022/09/24 04:55:18;;;;;;;16.92;13.98;;;;;;;12.06;100.00;100495.59;4958631;29;20087;-81
2022/09/24 04:57:45;;;;;;;19.13;13.57;;;;;;;12.04;100.00;100494.13;4939926;29;20056;-79
2022/09/24 05:00:14;;;;;;;19.83;13.85;;;;;;;12.05;100.00;100485.25;4936365;29;20146;-78
2022/09/24 05:02:42;;;;;;;19.20;13.23;;;;;;;11.94;100.00;100481.19;4942062;29;20062;-79
2022/09/24 05:05:11;;;;;;;21.70;13.65;;;;;;;12.00;100.00;100488.38;4936445;29;20058;-78
2022/09/24 05:07:38;;;;;;;21.27;13.73;;;;;;;11.89;100.00;100481.69;4958207;29;20049;-78
2022/09/24 05:10:05;;;;;;;17.67;13.15;;;;;;;11.96;100.00;100490.53;4952196;29;20130;-78
2022/09/24 05:12:32;;;;;;;18.50;13.73;;;;;;;11.99;100.00;100492.00;4953466;29;20053;-78
2022/09/24 05:14:59;;;;;;;20.83;13.65;;;;;;;12.01;100.00;100490.03;4953974;29;20057;-78
2022/09/24 05:17:26;;;;;;;18.20;13.35;;;;;;;11.92;100.00;100501.50;4953317;29;20055;-78
2022/09/24 05:19:53;;;;;;;16.52;12.73;;;;;;;11.94;100.00;100499.53;4954454;29;20111;-78
2022/09/24 05:22:21;;;;;;;23.95;13.07;;;;;;;11.87;100.00;100499.41;4955200;29;20075;-79
2022/09/24 05:24:47;;;;;;;18.45;12.43;;;;;;;11.79;100.00;100480.28;4955381;29;20047;-79
2022/09/24 05:27:13;;;;;;;22.33;12.85;;;;;;;11.76;100.00;100486.63;4940706;29;20229;-80
2022/09/24 05:29:42;;;;;;;17.23;12.85;;;;;;;11.80;100.00;100492.38;4940638;29;20129;-80
2022/09/24 05:32:10;;;;;;;18.67;13.77;;;;;;;11.79;100.00;100493.38;4942302;29;20048;-79
2022/09/24 05:34:37;;;;;;;17.58;13.80;;;;;;;11.72;100.00;100500.22;4941241;29;20098;-80
2022/09/24 05:37:04;;;;;;;17.55;13.68;;;;;;;11.72;100.00;100505.47;4955822;29;20111;-80
2022/09/24 05:39:32;;;;;;;19.13;13.90;;;;;;;11.75;100.00;100497.28;4954255;29;20089;-80
2022/09/24 05:41:59;;;;;;;17.05;13.13;;;;;;;11.75;100.00;100492.84;4952994;29;20043;-79
2022/09/24 05:44:26;;;;;;;19.58;13.98;;;;;;;11.73;100.00;100496.63;4960018;29;20058;-80
2022/09/24 05:46:52;;;;;;;24.33;14.18;;;;;;;11.70;100.00;100499.59;4960224;29;20111;-80
2022/09/24 05:49:19;;;;;;;20.48;15.02;;;;;;;11.75;100.00;100505.16;4960912;29;20047;-79
2022/09/24 05:51:48;;;;;;;18.92;14.18;;;;;;;11.76;100.00;100507.59;4955919;29;20420;-77
2022/09/24 05:54:15;;;;;;;21.35;14.68;;;;;;;11.85;100.00;100504.00;4952677;29;20043;-78
2022/09/24 05:56:44;;;;;;;22.90;14.77;;;;;;;11.82;100.00;100506.94;4952423;29;20142;-77
2022/09/24 05:59:11;;;;;;;22.30;14.68;;;;;;;11.93;100.00;100513.63;4952469;29;20476;-77
2022/09/24 06:01:38;;;;;;;21.58;13.35;;;;;;;11.93;100.00;100511.84;4953315;29;20058;-79
2022/09/24 06:04:05;;;;;;;22.25;14.40;;;;;;;12.01;100.00;100513.63;4953051;29;20075;-78
2022/09/24 06:06:31;;;;;;;18.50;13.15;;;;;;;12.01;100.00;100513.63;4953202;29;20476;-78
2022/09/24 06:08:58;;;;;;;20.13;14.65;;;;;;;11.98;100.00;100505.28;4953033;29;20116;-78
2022/09/24 06:11:24;;;;;;;24.42;13.82;;;;;;;11.96;100.00;100508.06;4953196;29;20576;-80
2022/09/24 06:13:52;;;;;;;17.85;14.13;;;;;;;11.92;100.00;100512.00;4953383;29;20065;-78
2022/09/24 06:16:19;;;;;;;20.58;13.95;;;;;;;11.93;100.00;100509.22;4954421;29;20472;-80
2022/09/24 06:18:46;;;;;;;18.30;14.27;;;;;;;11.93;100.00;100511.03;4954660;29;20061;-79
2022/09/24 06:21:16;;;;;;;16.77;13.02;;;;;;;11.97;100.00;100507.06;4954614;29;20059;-79
2022/09/24 06:23:44;;;;;;;19.63;13.50;;;;;;;12.20;100.00;100508.00;4933998;29;20521;-78
2022/09/24 06:26:12;;;;;;;17.70;13.20;;;;;;;12.28;100.00;100512.41;4939289;29;20130;-78
2022/09/24 06:28:39;;;;;;;16.10;13.27;;;;;;;12.30;100.00;100505.16;4949932;29;20143;-77
2022/09/24 06:31:10;;;;;;;18.38;13.98;;;;;;;12.39;100.00;100509.38;4949437;29;20047;-77
2022/09/24 06:33:37;;;;;;;22.35;15.00;;;;;;;12.49;100.00;100514.44;4955637;29;20058;-78
2022/09/24 06:36:05;;;;;;;21.60;13.10;;;;;;;12.54;100.00;100512.13;4950862;29;20058;-78
2022/09/24 06:38:32;;;;;;;22.70;13.77;;;;;;;12.58;100.00;100519.47;4934802;29;20441;-76
2022/09/24 06:41:00;;;;;;;21.10;13.75;;;;;;;12.56;100.00;100513.59;4935244;29;20380;-78
2022/09/24 06:43:27;;;;;;;18.92;14.30;;;;;;;12.65;100.00;100517.00;4935095;29;20054;-78
2022/09/24 06:45:55;;;;;;;20.98;14.35;;;;;;;12.82;100.00;100525.56;4934382;29;20136;-78
2022/09/24 06:48:25;;;;;;;22.25;14.20;;;;;;;12.79;100.00;100525.91;4947700;29;20048;-77
2022/09/24 06:50:53;;;;;;;19.38;14.27;;;;;;;12.66;100.00;100531.75;4956315;29;20055;-79
2022/09/24 06:53:20;;;;;;;19.88;14.50;;;;;;;12.62;100.00;100527.84;4958864;29;20476;-79
2022/09/24 06:55:47;;;;;;;17.30;14.52;;;;;;;12.71;100.00;100529.44;4958797;29;20115;-78
2022/09/24 06:58:16;;;;;;;18.77;14.35;;;;;;;12.65;100.00;100537.19;4958163;29;20110;-78
2022/09/24 07:00:43;;;;;;;22.30;14.13;;;;;;;12.61;100.00;100536.69;4959718;29;20083;-78
2022/09/24 07:03:14;;;;;;;21.50;14.23;;;;;;;12.64;100.00;100531.09;4958540;29;20043;-79
2022/09/24 07:05:42;;;;;;;22.63;14.52;;;;;;;12.59;100.00;100536.06;4955493;29;20134;-77
2022/09/24 07:08:09;;;;;;;17.80;14.25;;;;;;;12.70;100.00;100538.31;4956565;29;20051;-78
2022/09/24 07:10:36;;;;;;;18.20;13.48;;;;;;;12.83;100.00;100537.72;4956085;29;20494;-77
2022/09/24 07:13:03;;;;;;;20.17;14.27;;;;;;;12.73;100.00;100542.38;4955237;28;20078;-78
2022/09/24 07:15:29;;;;;;;18.88;14.60;;;;;;;12.87;100.00;100545.06;4955996;29;20799;-78
2022/09/24 07:17:57;;;;;;;17.08;13.25;;;;;;;13.04;100.00;100542.38;4956639;29;20483;-78
2022/09/24 07:20:26;;;;;;;16.67;13.45;;;;;;;13.00;100.00;100543.69;4956922;29;20057;-77
2022/09/24 07:22:55;;;;;;;20.52;13.82;;;;;;;13.06;100.00;100538.56;4957394;29;20107;-78
2022/09/24 07:25:22;;;;;;;17.15;12.55;;;;;;;13.32;99.33;100534.78;4957559;29;20047;-78
2022/09/24 07:27:49;;;;;;;19.85;12.70;;;;;;;13.65;98.39;100538.00;4959424;29;20051;-78
2022/09/24 07:30:16;;;;;;;18.35;13.52;;;;;;;13.52;97.31;100547.28;4957368;29;20086;-78
2022/09/24 07:32:42;;;;;;;18.75;13.13;;;;;;;13.79;96.50;100550.31;4959367;29;20829;-79
2022/09/24 07:35:09;;;;;;;19.63;13.05;;;;;;;13.63;96.46;100546.06;4960458;29;20444;-79
2022/09/24 07:37:36;;;;;;;21.50;13.52;;;;;;;13.67;96.27;100549.16;4960000;29;20516;-79
2022/09/24 07:40:04;;;;;;;18.65;13.05;;;;;;;13.41;96.61;100539.81;4953844;29;20078;-77
2022/09/24 07:42:31;;;;;;;21.10;12.65;;;;;;;13.63;95.83;100550.50;4950701;28;20050;-77
2022/09/24 07:44:58;;;;;;;20.33;12.52;;;;;;;13.48;94.72;100542.56;4955942;29;20093;-79
2022/09/24 07:47:24;;;;;;;22.17;13.48;;;;;;;13.70;95.18;100540.91;4960552;29;20047;-79
2022/09/24 07:49:51;;;;;;;20.20;13.40;;;;;;;13.70;94.49;100548.78;4960983;29;20047;-78
2022/09/24 07:52:18;;;;;;;16.95;13.00;;;;;;;13.72;93.37;100534.44;4956077;29;20046;-79
2022/09/24 07:54:44;;;;;;;21.42;13.25;;;;;;;13.69;94.33;100545.34;4953017;29;20047;-78
2022/09/24 07:57:12;;;;;;;18.23;13.10;;;;;;;13.66;94.44;100556.22;4956515;29;20085;-78
2022/09/24 07:59:39;;;;;;;18.58;13.82;;;;;;;13.78;94.42;100553.94;4958172;29;20047;-78
2022/09/24 08:02:13;;;;;;;20.17;13.98;;;;;;;13.69;94.60;100560.31;4955280;29;20048;-78
2022/09/24 08:04:40;;;;;;;19.48;13.30;;;;;;;13.97;94.93;100555.25;4953176;29;20133;-77
2022/09/24 08:07:07;;;;;;;18.35;13.85;;;;;;;13.77;95.27;100557.56;4959303;29;20468;-78
2022/09/24 08:09:34;;;;;;;16.17;13.10;;;;;;;13.76;94.68;100561.19;4950493;29;20468;-78
2022/09/24 08:12:01;;;;;;;18.73;13.32;;;;;;;13.57;95.63;100557.28;4949351;29;20079;-78
2022/09/24 08:14:29;;;;;;;20.73;13.38;;;;;;;13.41;96.98;100557.41;4953854;29;20187;-78
2022/09/24 08:16:55;;;;;;;21.20;13.80;;;;;;;13.34;97.63;100562.53;4949874;29;20121;-78
2022/09/24 08:19:22;;;;;;;18.15;13.27;;;;;;;13.33;98.21;100560.91;4946907;29;20575;-79
2022/09/24 08:21:49;;;;;;;18.90;13.93;;;;;;;13.34;98.44;100561.72;4952755;29;20134;-78
2022/09/24 08:24:16;;;;;;;18.10;12.95;;;;;;;13.44;97.83;100557.88;4945286;29;20052;-78
2022/09/24 08:26:42;;;;;;;17.77;13.30;;;;;;;13.43;98.07;100561.47;4944716;29;20147;-79
2022/09/24 08:29:09;;;;;;;17.65;14.18;;;;;;;13.43;98.17;100558.84;4948051;29;20051;-79
2022/09/24 08:31:38;;;;;;;20.05;14.75;;;;;;;13.29;97.55;100562.25;4949792;29;20044;-79
2022/09/24 08:34:05;;;;;;;22.65;14.73;;;;;;;13.59;96.88;100571.06;4961250;29;20047;-79
2022/09/24 08:36:31;;;;;;;15.20;13.57;;;;;;;13.66;97.08;100568.53;4963150;29;20575;-79
2022/09/24 08:38:58;;;;;;;16.70;13.80;;;;;;;13.62;96.97;100573.34;4951072;29;20422;-79
2022/09/24 08:41:42;;;;;;;18.92;13.88;;;;;;;13.56;97.59;100572.22;4946273;29;20098;-79
2022/09/24 08:47:21;;;;;;;18.83;14.30;;;;;;;13.43;97.39;100565.91;4946304;29;20063;-79
2022/09/24 08:47:22;;;;;;;17.90;13.80;;;;;;;13.45;98.64;100569.19;4944800;29;20058;-79
2022/09/24 08:49:55;;;;;;;20.90;14.32;;;;;;;13.49;97.78;100550.28;4948844;29;20058;-79
2022/09/24 08:52:31;;;;;;;21.40;14.63;;;;;;;13.88;98.35;100572.94;4955376;29;20052;-78
2022/09/24 08:55:02;;;;;;;22.48;13.93;;;;;;;13.76;96.94;100569.09;4951445;29;20058;-79
2022/09/24 08:57:29;;;;;;;22.90;14.70;;;;;;;13.97;95.32;100568.41;4955178;29;20062;-79
2022/09/24 08:59:55;;;;;;;20.63;13.98;;;;;;;14.03;93.15;100573.78;4959810;29;20110;-79
2022/09/24 09:02:37;;;;;;;17.95;13.82;;;;;;;14.42;92.84;100578.00;4959286;29;20134;-79
2022/09/24 09:05:13;;;;;;;19.75;13.95;;;;;;;14.43;91.33;100569.91;4960371;29;20138;-79
2022/09/24 09:07:49;;;;;;;17.65;14.13;;;;;;;14.67;91.13;100574.06;4953239;29;20488;-79
2022/09/24 09:10:26;;;;;;;18.20;15.07;;;;;;;14.93;90.02;100577.00;4948289;29;20143;-79
2022/09/24 09:12:56;;;;;;;23.73;15.73;;;;;;;14.96;90.33;100569.75;4955214;29;20397;-79
2022/09/24 09:15:27;;;;;;;19.10;14.20;;;;;;;15.00;92.01;100571.00;4948517;29;20086;-79
2022/09/24 09:18:00;;;;;;;25.80;16.13;;;;;;;15.35;90.96;100583.31;4949505;29;20075;-80
2022/09/24 09:20:31;;;;;;;23.30;16.30;;;;;;;15.28;90.42;100574.53;4952339;29;20047;-81
2022/09/24 09:23:03;;;;;;;25.63;17.02;;;;;;;14.88;91.05;100574.13;4951715;29;20047;-78
2022/09/24 09:25:35;;;;;;;22.38;16.63;;;;;;;15.29;91.42;100581.44;4949577;29;20063;-78
2022/09/24 09:28:13;;;;;;;22.30;16.65;;;;;;;15.39;89.20;100581.13;4957296;29;20051;-79
2022/09/24 09:30:53;;;;;;;22.88;17.17;;;;;;;15.71;90.00;100585.91;4957164;29;20460;-80
2022/09/24 09:33:36;;;;;;;25.27;17.20;;;;;;;15.22;88.76;100580.56;4940632;29;20079;-80
2022/09/24 09:36:13;;;;;;;24.88;16.38;;;;;;;15.39;88.47;100587.22;4938182;29;20058;-79
2022/09/24 09:38:50;;;;;;;23.17;17.38;;;;;;;15.79;87.66;100583.13;4938682;29;20056;-77
2022/09/24 09:41:23;;;;;;;21.42;16.73;;;;;;;15.96;87.81;100583.69;4955129;29;20051;-79
2022/09/24 09:43:49;;;;;;;24.02;16.92;;;;;;;16.07;87.75;100585.75;4957718;29;20110;-79
2022/09/24 09:46:22;;;;;;;20.73;16.35;;;;;;;16.47;85.40;100578.91;4958555;29;20056;-79
2022/09/24 09:48:54;;;;;;;24.23;17.15;;;;;;;16.59;87.58;100587.88;4957305;29;20051;-79
2022/09/24 09:51:22;;;;;;;25.33;17.63;;;;;;;16.91;86.86;100593.56;4958294;29;20055;-79
2022/09/24 09:53:56;;;;;;;23.45;18.40;;;;;;;17.03;83.87;100593.78;4958276;29;20058;-79
2022/09/24 09:56:26;;;;;;;23.23;19.15;;;;;;;16.58;85.22;100588.09;4958104;29;20119;-79
2022/09/24 09:59:03;;;;;;;28.33;20.25;;;;;;;16.06;83.72;100584.16;4957415;29;20110;-79
2022/09/24 10:01:34;;;;;;;28.20;20.58;;;;;;;16.15;84.40;100592.72;4957490;29;20093;-79
2022/09/24 10:04:03;;;;;;;25.10;20.30;;;;;;;16.03;84.95;100581.09;4958561;28;20130;-79
2022/09/24 10:06:32;;;;;;;25.80;20.13;;;;;;;16.69;85.80;100584.91;4962122;29;20055;-79
2022/09/24 10:09:12;;;;;;;25.55;19.65;;;;;;;16.84;82.94;100588.25;4960971;29;20075;-79
2022/09/24 10:11:39;;;;;;;28.42;20.60;;;;;;;16.79;81.64;100587.19;4961734;29;20134;-78
2022/09/24 10:14:11;;;;;;;22.15;18.25;;;;;;;16.88;83.39;100591.31;4962043;29;20043;-79
2022/09/24 10:16:39;;;;;;;26.70;20.38;;;;;;;17.13;83.38;100589.75;4960649;29;20059;-79
2022/09/24 10:19:17;;;;;;;26.55;19.80;;;;;;;16.60;82.55;100583.41;4961012;29;20461;-79
2022/09/24 10:21:43;;;;;;;28.35;21.05;;;;;;;16.33;83.71;100581.66;4961722;29;20086;-79
2022/09/24 10:24:16;;;;;;;30.15;21.45;;;;;;;16.78;82.97;100586.38;4960803;29;20130;-79
2022/09/24 10:26:44;;;;;;;26.08;19.88;;;;;;;17.21;83.96;100589.56;4960437;29;20051;-79
2022/09/24 10:32:00;;;;;;;24.73;19.20;;;;;;;17.42;81.68;100585.94;4961287;29;20086;-80
2022/09/24 10:34:29;;;;;;;27.83;18.30;;;;;;;17.48;79.43;100574.56;4959740;29;20065;-80
2022/09/24 10:37:02;;;;;;;29.52;20.02;;;;;;;17.54;80.68;100572.91;4960433;29;20134;-80
2022/09/24 10:39:29;;;;;;;26.30;18.88;;;;;;;17.68;79.60;100571.13;4962325;29;20142;-80
2022/09/24 10:41:57;;;;;;;25.85;18.90;;;;;;;17.91;80.00;100574.19;4960469;29;20150;-79
2022/09/24 10:44:32;;;;;;;24.42;19.48;;;;;;;17.75;79.01;100578.03;4953684;29;20111;-80
2022/09/24 10:47:20;;;;;;;30.70;18.75;;;;;;;17.58;77.75;100564.38;4945771;29;20047;-80
2022/09/24 10:50:13;;;;;;;33.67;20.60;;;;;;;17.27;78.13;100564.16;4948400;29;20134;-79
2022/09/24 10:52:44;;;;;;;;;;;;;;;17.49;78.31;100576.16;4946112;29;20107;-79
2022/09/24 10:55:28;;;;;;;29.83;20.45;;;;;;;17.70;79.87;100566.44;4949690;29;19922;-79
2022/09/24 10:58:02;;;;;;;29.08;20.83;;;;;;;17.57;79.10;100573.31;4949608;29;20048;-77
2022/09/24 11:00:38;;;;;;;31.15;20.42;;;;;;;17.50;78.67;100561.91;4950483;29;20052;-79
2022/09/24 11:03:37;;;;;;;28.95;20.80;;;;;;;17.45;79.43;100569.69;4949455;29;20062;-79
2022/09/24 11:06:18;;;;;;;27.42;19.38;;;;;;;16.96;78.39;100563.88;4949211;29;20048;-79
2022/09/24 11:09:05;;;;;;;28.85;20.80;;;;;;;16.64;78.68;100542.41;4948019;29;20059;-79
2022/09/24 11:11:44;;;;;;;25.20;19.17;;;;;;;17.05;81.35;100567.97;4951245;29;20079;-77
2022/09/24 11:14:28;;;;;;;27.75;18.75;;;;;;;16.79;79.49;100556.31;4944144;29;20050;-79
2022/09/24 11:17:11;;;;;;;24.30;19.05;;;;;;;16.95;78.41;100562.25;4946628;29;20090;-79
2022/09/24 11:20:13;;;;;;;27.95;19.02;;;;;;;16.74;78.58;100566.66;4948019;29;20072;-80
2022/09/24 11:23:00;;;;;;;26.00;19.65;;;;;;;16.82;79.78;100553.28;4938757;29;20047;-79
2022/09/24 11:25:35;;;;;;;30.77;20.42;;;;;;;16.90;81.69;100560.22;4943239;29;20083;-78